Impacts TAF Board
For situational awareness. Not to be used for flight planning purposes.
IDs:

KIAD - Washington/Dulles In, VA, US

Issued at 0838 UTC 15 Dec 2018
Updated at 1057 UTC 15 Dec 2018
Potential Impact None Slight Moderate High
Time1052Z 15/11Z 15/12Z 15/13Z 15/14Z 15/15Z 15/16Z 15/17Z 15/18Z 15/19Z 15/20Z 15/21Z 15/22Z 15/23Z>>
Type OBS PRVL PRVL PRVL PRVL PRVL PRVL PRVL PRVL PRVL PRVL PRVL PRVL PRVL
VIS 2.5 1.5 1.5 0.75 0.75 0.75 0.75 0.75 0.75 1 1 1 1 1
CIG 3 8 8 3 3 3 3 3 3 3 3 3 3 3
Cover OVC OVC OVC OVC OVC OVC OVC OVC OVC OVC OVC OVC OVC OVC
FltCat LIFR IFR IFR LIFR LIFR LIFR LIFR LIFR LIFR LIFR LIFR LIFR LIFR LIFR
WX -RA BR -RA BR -RA BR -RA -RA -RA -RA -RA -RA -RA -RA -RA -RA -RA
WDir 350 30 30 30 30 30 30 30 30 30 30 30 30 30
WSpd 7 7 7 7 7 7 7 7 7 8 8 8 8 8
WGst -- -- -- -- -- -- -- -- -- -- -- -- -- --
Raw TAF
KIAD 150838Z 1509/1612 03007KT 1 1/2SM -RA BR BKN008 OVC010 WS020/09030KT
  FM151300 03007KT 3/4SM -RA BKN003 OVC010
  FM151900 03008KT 1SM -RA BKN003 OVC010 WS020/06035KT
  FM160000 05009KT 1SM -RA BR BKN003 OVC010


Raw METAR
KIAD 151052Z 35007KT 2 1/2SM -RA BR OVC003 07/07 A3005 RMK AO2 SLP178 P0009 T00720072
KIAD 150952Z 36007KT 2 1/2SM -RA BR BKN003 OVC009 07/07 A3007 RMK AO2 SLP183 P0014 T00720072
KIAD 150900Z 36008KT 2SM RA BR BKN004 OVC008 07/07 A3008 RMK AO2 P0001 T00720072
KIAD 150852Z 36006KT 2SM -RA BR SCT004 BKN010 OVC018 07/07 A3009 RMK AO2 SLP189 P0010 60015 T00720072 58015
KIAD 150831Z COR 02006KT 1 1/2SM R01R/P6000FT RA BR SCT004 BKN011 OVC018 07/07 A3010 RMK AO2 P0006 T00720072
KIAD 150803Z 36006KT 2 1/2SM -RA BR OVC004 07/07 A3012 RMK AO2 P0001 T00670067
KIAD 150752Z 01008KT 3SM -RA BR OVC003 07/07 A3012 RMK AO2 SLP200 P0003 T00670067
KIAD 150739Z 01008KT 2 1/2SM -RA BR OVC003 07/07 A3013 RMK AO2 P0002 T00670067

METAR Board
Radar Display
Forecast Discussion
For situational awareness. Not to be used for flight planning purposes.